sensor_id;sensor_type;location;lat;lon;timestamp;P1;durP1;ratioP1;P2;durP2;ratioP2
25443;SDS011;13368;52.346;4.678;2023-02-26T00:00:00;8.2;;;4.0;;
25443;SDS011;13368;52.346;4.678;2023-02-26T00:05:00;9.0;;;4.9;;
25443;SDS011;13368;52.346;4.678;2023-02-26T00:10:00;5.5;;;3.3;;
25443;SDS011;13368;52.346;4.678;2023-02-26T00:15:00;7.9;;;3.8;;
25443;SDS011;13368;52.346;4.678;2023-02-26T00:20:00;7.6;;;3.3;;
25443;SDS011;13368;52.346;4.678;2023-02-26T00:25:00;8.1;;;3.1;;
25443;SDS011;13368;52.346;4.678;2023-02-26T00:30:00;3.8;;;2.7;;
25443;SDS011;13368;52.346;4.678;2023-02-26T00:35:00;4.1;;;2.9;;
25443;SDS011;13368;52.346;4.678;2023-02-26T00:40:04;12.3;;;3.1;;
25443;SDS011;13368;52.346;4.678;2023-02-26T00:45:00;3.8;;;2.2;;
25443;SDS011;13368;52.346;4.678;2023-02-26T00:50:03;6.5;;;2.5;;
25443;SDS011;13368;52.346;4.678;2023-02-26T00:55:00;8.2;;;3.2;;
25443;SDS011;13368;52.346;4.678;2023-02-26T01:00:00;7.6;;;2.6;;
25443;SDS011;13368;52.346;4.678;2023-02-26T01:05:00;8.1;;;2.8;;
25443;SDS011;13368;52.346;4.678;2023-02-26T01:10:00;5.7;;;2.6;;
25443;SDS011;13368;52.346;4.678;2023-02-26T01:15:00;7.4;;;3.0;;
25443;SDS011;13368;52.346;4.678;2023-02-26T01:20:00;6.9;;;2.8;;
25443;SDS011;13368;52.346;4.678;2023-02-26T01:25:01;6.7;;;2.6;;
25443;SDS011;13368;52.346;4.678;2023-02-26T01:30:00;10.0;;;3.1;;
25443;SDS011;13368;52.346;4.678;2023-02-26T01:35:01;9.9;;;3.1;;
25443;SDS011;13368;52.346;4.678;2023-02-26T01:40:04;3.5;;;2.6;;
25443;SDS011;13368;52.346;4.678;2023-02-26T01:45:01;7.0;;;2.9;;
25443;SDS011;13368;52.346;4.678;2023-02-26T01:50:07;8.6;;;3.1;;
25443;SDS011;13368;52.346;4.678;2023-02-26T01:55:00;5.5;;;2.4;;
25443;SDS011;13368;52.346;4.678;2023-02-26T02:00:00;6.1;;;2.5;;
25443;SDS011;13368;52.346;4.678;2023-02-26T02:05:00;10.5;;;3.2;;
25443;SDS011;13368;52.346;4.678;2023-02-26T02:10:00;8.1;;;2.3;;
25443;SDS011;13368;52.346;4.678;2023-02-26T02:15:03;4.6;;;2.7;;
25443;SDS011;13368;52.346;4.678;2023-02-26T02:20:08;9.4;;;3.0;;
25443;SDS011;13368;52.346;4.678;2023-02-26T02:25:06;5.1;;;2.5;;
25443;SDS011;13368;52.346;4.678;2023-02-26T02:30:03;7.2;;;2.6;;
25443;SDS011;13368;52.346;4.678;2023-02-26T02:35:02;5.9;;;2.9;;
25443;SDS011;13368;52.346;4.678;2023-02-26T02:40:00;6.4;;;2.5;;
25443;SDS011;13368;52.346;4.678;2023-02-26T02:45:02;8.2;;;2.6;;
25443;SDS011;13368;52.346;4.678;2023-02-26T02:50:02;8.3;;;2.8;;
25443;SDS011;13368;52.346;4.678;2023-02-26T02:55:02;8.2;;;3.4;;
25443;SDS011;13368;52.346;4.678;2023-02-26T03:00:02;8.1;;;3.3;;
25443;SDS011;13368;52.346;4.678;2023-02-26T03:05:00;7.1;;;2.7;;
25443;SDS011;13368;52.346;4.678;2023-02-26T03:10:00;8.6;;;2.8;;
25443;SDS011;13368;52.346;4.678;2023-02-26T03:15:01;8.4;;;2.7;;
25443;SDS011;13368;52.346;4.678;2023-02-26T03:20:07;4.9;;;2.8;;
25443;SDS011;13368;52.346;4.678;2023-02-26T03:25:02;8.2;;;2.6;;
25443;SDS011;13368;52.346;4.678;2023-02-26T03:30:02;5.2;;;2.9;;
25443;SDS011;13368;52.346;4.678;2023-02-26T03:35:02;9.3;;;2.8;;
25443;SDS011;13368;52.346;4.678;2023-02-26T03:40:02;8.1;;;3.0;;
25443;SDS011;13368;52.346;4.678;2023-02-26T03:45:01;5.8;;;3.0;;
25443;SDS011;13368;52.346;4.678;2023-02-26T03:50:01;7.1;;;2.8;;
25443;SDS011;13368;52.346;4.678;2023-02-26T03:55:02;6.8;;;2.9;;
25443;SDS011;13368;52.346;4.678;2023-02-26T04:00:00;6.3;;;3.2;;
25443;SDS011;13368;52.346;4.678;2023-02-26T04:05:02;10.5;;;2.9;;
25443;SDS011;13368;52.346;4.678;2023-02-26T04:10:00;8.0;;;2.9;;
25443;SDS011;13368;52.346;4.678;2023-02-26T04:15:00;8.1;;;3.4;;
25443;SDS011;13368;52.346;4.678;2023-02-26T04:20:00;7.2;;;2.8;;
25443;SDS011;13368;52.346;4.678;2023-02-26T04:25:00;8.4;;;2.7;;
25443;SDS011;13368;52.346;4.678;2023-02-26T04:30:00;4.1;;;2.7;;
25443;SDS011;13368;52.346;4.678;2023-02-26T04:35:00;7.0;;;2.9;;
25443;SDS011;13368;52.346;4.678;2023-02-26T04:40:00;6.6;;;2.3;;
25443;SDS011;13368;52.346;4.678;2023-02-26T04:45:00;6.3;;;2.7;;
25443;SDS011;13368;52.346;4.678;2023-02-26T04:50:00;8.8;;;2.9;;
25443;SDS011;13368;52.346;4.678;2023-02-26T04:55:00;6.5;;;2.6;;
25443;SDS011;13368;52.346;4.678;2023-02-26T05:00:00;7.0;;;2.6;;
25443;SDS011;13368;52.346;4.678;2023-02-26T05:05:00;7.7;;;3.3;;
25443;SDS011;13368;52.346;4.678;2023-02-26T05:10:00;9.1;;;2.7;;
25443;SDS011;13368;52.346;4.678;2023-02-26T05:15:00;9.5;;;2.8;;
25443;SDS011;13368;52.346;4.678;2023-02-26T05:20:00;5.1;;;2.5;;
25443;SDS011;13368;52.346;4.678;2023-02-26T05:25:00;9.4;;;3.2;;
25443;SDS011;13368;52.346;4.678;2023-02-26T05:30:00;5.8;;;2.6;;
25443;SDS011;13368;52.346;4.678;2023-02-26T05:35:00;6.7;;;2.9;;
25443;SDS011;13368;52.346;4.678;2023-02-26T05:40:00;5.1;;;2.9;;
25443;SDS011;13368;52.346;4.678;2023-02-26T05:45:00;7.0;;;2.9;;
25443;SDS011;13368;52.346;4.678;2023-02-26T05:50:00;5.3;;;2.7;;
25443;SDS011;13368;52.346;4.678;2023-02-26T05:55:00;3.8;;;2.5;;
25443;SDS011;13368;52.346;4.678;2023-02-26T06:00:00;8.5;;;2.8;;
25443;SDS011;13368;52.346;4.678;2023-02-26T06:05:00;6.6;;;2.7;;
25443;SDS011;13368;52.346;4.678;2023-02-26T06:10:00;6.8;;;2.5;;
25443;SDS011;13368;52.346;4.678;2023-02-26T06:15:00;8.5;;;2.7;;
25443;SDS011;13368;52.346;4.678;2023-02-26T06:20:00;7.3;;;2.3;;
25443;SDS011;13368;52.346;4.678;2023-02-26T06:25:00;3.9;;;2.6;;
25443;SDS011;13368;52.346;4.678;2023-02-26T06:30:00;8.2;;;2.7;;
25443;SDS011;13368;52.346;4.678;2023-02-26T06:35:00;8.0;;;3.3;;
25443;SDS011;13368;52.346;4.678;2023-02-26T06:40:00;6.2;;;2.1;;
25443;SDS011;13368;52.346;4.678;2023-02-26T06:45:00;6.6;;;2.2;;
25443;SDS011;13368;52.346;4.678;2023-02-26T06:50:00;4.6;;;2.4;;
25443;SDS011;13368;52.346;4.678;2023-02-26T06:55:00;5.8;;;2.5;;
25443;SDS011;13368;52.346;4.678;2023-02-26T07:00:00;8.1;;;3.0;;
25443;SDS011;13368;52.346;4.678;2023-02-26T07:05:00;7.7;;;2.3;;
25443;SDS011;13368;52.346;4.678;2023-02-26T07:10:00;4.8;;;2.2;;
25443;SDS011;13368;52.346;4.678;2023-02-26T07:15:00;5.6;;;2.6;;
25443;SDS011;13368;52.346;4.678;2023-02-26T07:20:00;5.0;;;2.8;;
25443;SDS011;13368;52.346;4.678;2023-02-26T07:25:00;4.7;;;2.7;;
25443;SDS011;13368;52.346;4.678;2023-02-26T07:30:00;3.4;;;2.4;;
25443;SDS011;13368;52.346;4.678;2023-02-26T07:35:00;5.6;;;2.8;;
25443;SDS011;13368;52.346;4.678;2023-02-26T07:40:00;5.2;;;2.3;;
25443;SDS011;13368;52.346;4.678;2023-02-26T07:45:00;9.1;;;3.0;;
25443;SDS011;13368;52.346;4.678;2023-02-26T07:50:00;4.4;;;2.5;;
25443;SDS011;13368;52.346;4.678;2023-02-26T07:55:00;4.4;;;2.3;;
25443;SDS011;13368;52.346;4.678;2023-02-26T08:00:00;5.8;;;2.7;;
25443;SDS011;13368;52.346;4.678;2023-02-26T08:05:00;6.3;;;2.8;;
25443;SDS011;13368;52.346;4.678;2023-02-26T08:10:00;4.2;;;2.6;;
25443;SDS011;13368;52.346;4.678;2023-02-26T08:15:00;3.8;;;2.6;;
25443;SDS011;13368;52.346;4.678;2023-02-26T08:20:00;5.3;;;2.4;;
25443;SDS011;13368;52.346;4.678;2023-02-26T08:25:00;5.3;;;3.1;;
25443;SDS011;13368;52.346;4.678;2023-02-26T08:30:00;3.2;;;2.5;;
25443;SDS011;13368;52.346;4.678;2023-02-26T08:35:00;5.4;;;2.3;;
25443;SDS011;13368;52.346;4.678;2023-02-26T08:40:00;14.5;;;3.4;;
25443;SDS011;13368;52.346;4.678;2023-02-26T08:45:00;4.1;;;2.1;;
25443;SDS011;13368;52.346;4.678;2023-02-26T08:50:00;4.7;;;2.8;;
25443;SDS011;13368;52.346;4.678;2023-02-26T08:55:00;4.5;;;1.9;;
25443;SDS011;13368;52.346;4.678;2023-02-26T09:00:00;3.7;;;2.2;;
25443;SDS011;13368;52.346;4.678;2023-02-26T09:05:00;5.6;;;2.2;;
25443;SDS011;13368;52.346;4.678;2023-02-26T09:10:00;10.4;;;3.1;;
25443;SDS011;13368;52.346;4.678;2023-02-26T09:15:00;6.3;;;2.2;;
25443;SDS011;13368;52.346;4.678;2023-02-26T09:20:01;4.2;;;2.2;;
25443;SDS011;13368;52.346;4.678;2023-02-26T09:25:00;10.3;;;4.9;;
25443;SDS011;13368;52.346;4.678;2023-02-26T09:30:00;2.6;;;1.9;;
25443;SDS011;13368;52.346;4.678;2023-02-26T09:35:00;4.4;;;2.2;;
25443;SDS011;13368;52.346;4.678;2023-02-26T09:40:00;4.8;;;2.8;;
25443;SDS011;13368;52.346;4.678;2023-02-26T09:45:00;3.6;;;1.8;;
25443;SDS011;13368;52.346;4.678;2023-02-26T09:50:01;4.6;;;2.1;;
25443;SDS011;13368;52.346;4.678;2023-02-26T09:55:02;5.2;;;2.2;;
25443;SDS011;13368;52.346;4.678;2023-02-26T10:00:00;3.8;;;1.9;;
25443;SDS011;13368;52.346;4.678;2023-02-26T10:05:03;4.1;;;2.0;;
25443;SDS011;13368;52.346;4.678;2023-02-26T10:10:03;6.9;;;3.2;;
25443;SDS011;13368;52.346;4.678;2023-02-26T10:15:02;6.6;;;1.7;;
25443;SDS011;13368;52.346;4.678;2023-02-26T10:20:01;3.1;;;1.8;;
25443;SDS011;13368;52.346;4.678;2023-02-26T10:25:01;3.6;;;2.5;;
25443;SDS011;13368;52.346;4.678;2023-02-26T10:30:02;3.1;;;1.8;;
25443;SDS011;13368;52.346;4.678;2023-02-26T10:35:01;4.3;;;1.9;;
25443;SDS011;13368;52.346;4.678;2023-02-26T10:40:02;5.4;;;2.0;;
25443;SDS011;13368;52.346;4.678;2023-02-26T10:45:04;5.4;;;1.8;;
25443;SDS011;13368;52.346;4.678;2023-02-26T10:50:01;4.0;;;2.2;;
25443;SDS011;13368;52.346;4.678;2023-02-26T10:55:05;3.9;;;1.7;;
25443;SDS011;13368;52.346;4.678;2023-02-26T11:00:00;3.6;;;2.1;;
25443;SDS011;13368;52.346;4.678;2023-02-26T11:05:00;4.7;;;1.9;;
25443;SDS011;13368;52.346;4.678;2023-02-26T11:10:00;4.6;;;1.6;;
25443;SDS011;13368;52.346;4.678;2023-02-26T11:15:00;6.0;;;1.9;;
25443;SDS011;13368;52.346;4.678;2023-02-26T11:20:01;5.2;;;1.9;;
25443;SDS011;13368;52.346;4.678;2023-02-26T11:25:01;3.1;;;1.5;;
25443;SDS011;13368;52.346;4.678;2023-02-26T11:30:02;2.6;;;1.8;;
25443;SDS011;13368;52.346;4.678;2023-02-26T11:35:00;6.1;;;1.8;;
25443;SDS011;13368;52.346;4.678;2023-02-26T11:40:03;3.0;;;1.7;;
25443;SDS011;13368;52.346;4.678;2023-02-26T11:45:00;11.3;;;2.4;;
25443;SDS011;13368;52.346;4.678;2023-02-26T11:50:01;2.9;;;1.8;;
25443;SDS011;13368;52.346;4.678;2023-02-26T11:55:01;3.3;;;2.1;;
25443;SDS011;13368;52.346;4.678;2023-02-26T12:00:02;5.3;;;1.9;;
25443;SDS011;13368;52.346;4.678;2023-02-26T12:05:02;3.1;;;1.5;;
25443;SDS011;13368;52.346;4.678;2023-02-26T12:10:00;3.2;;;2.1;;
25443;SDS011;13368;52.346;4.678;2023-02-26T12:15:04;5.2;;;2.5;;
25443;SDS011;13368;52.346;4.678;2023-02-26T12:20:02;3.4;;;2.4;;
25443;SDS011;13368;52.346;4.678;2023-02-26T12:25:05;4.6;;;1.6;;
25443;SDS011;13368;52.346;4.678;2023-02-26T12:30:04;7.0;;;2.1;;
25443;SDS011;13368;52.346;4.678;2023-02-26T12:35:07;7.4;;;2.7;;
25443;SDS011;13368;52.346;4.678;2023-02-26T12:40:04;2.8;;;1.8;;
25443;SDS011;13368;52.346;4.678;2023-02-26T12:45:05;6.3;;;2.1;;
25443;SDS011;13368;52.346;4.678;2023-02-26T12:50:03;3.8;;;1.9;;
25443;SDS011;13368;52.346;4.678;2023-02-26T12:55:05;7.5;;;1.9;;
25443;SDS011;13368;52.346;4.678;2023-02-26T13:00:08;3.9;;;1.9;;
25443;SDS011;13368;52.346;4.678;2023-02-26T13:05:07;5.0;;;1.9;;
25443;SDS011;13368;52.346;4.678;2023-02-26T13:10:02;3.4;;;1.8;;
25443;SDS011;13368;52.346;4.678;2023-02-26T13:15:03;5.3;;;2.3;;
25443;SDS011;13368;52.346;4.678;2023-02-26T13:20:02;3.5;;;2.1;;
25443;SDS011;13368;52.346;4.678;2023-02-26T13:25:01;6.5;;;2.6;;
25443;SDS011;13368;52.346;4.678;2023-02-26T13:30:05;4.0;;;1.8;;
25443;SDS011;13368;52.346;4.678;2023-02-26T13:35:02;4.7;;;1.8;;
25443;SDS011;13368;52.346;4.678;2023-02-26T13:40:16;4.8;;;1.5;;
25443;SDS011;13368;52.346;4.678;2023-02-26T13:45:05;3.4;;;1.4;;
25443;SDS011;13368;52.346;4.678;2023-02-26T13:50:03;3.1;;;1.8;;
25443;SDS011;13368;52.346;4.678;2023-02-26T13:55:01;3.5;;;1.7;;
25443;SDS011;13368;52.346;4.678;2023-02-26T14:00:02;4.0;;;1.7;;
25443;SDS011;13368;52.346;4.678;2023-02-26T14:05:00;5.1;;;1.8;;
25443;SDS011;13368;52.346;4.678;2023-02-26T14:10:00;5.3;;;1.7;;
25443;SDS011;13368;52.346;4.678;2023-02-26T14:25:04;3.0;;;1.6;;
25443;SDS011;13368;52.346;4.678;2023-02-26T14:30:03;3.8;;;1.5;;
25443;SDS011;13368;52.346;4.678;2023-02-26T14:35:02;7.5;;;2.1;;
25443;SDS011;13368;52.346;4.678;2023-02-26T14:40:03;2.7;;;1.9;;
25443;SDS011;13368;52.346;4.678;2023-02-26T14:45:03;4.0;;;1.9;;
25443;SDS011;13368;52.346;4.678;2023-02-26T14:50:00;5.0;;;2.3;;
25443;SDS011;13368;52.346;4.678;2023-02-26T14:55:04;3.5;;;2.0;;
25443;SDS011;13368;52.346;4.678;2023-02-26T15:00:03;4.2;;;2.2;;
25443;SDS011;13368;52.346;4.678;2023-02-26T15:05:04;3.0;;;1.5;;
25443;SDS011;13368;52.346;4.678;2023-02-26T15:10:05;6.4;;;4.1;;
25443;SDS011;13368;52.346;4.678;2023-02-26T15:15:05;3.4;;;1.4;;
25443;SDS011;13368;52.346;4.678;2023-02-26T15:20:04;3.1;;;1.6;;
25443;SDS011;13368;52.346;4.678;2023-02-26T15:25:00;3.7;;;1.8;;
25443;SDS011;13368;52.346;4.678;2023-02-26T15:30:00;5.2;;;1.9;;
25443;SDS011;13368;52.346;4.678;2023-02-26T15:35:02;4.1;;;1.7;;
25443;SDS011;13368;52.346;4.678;2023-02-26T15:40:02;2.6;;;1.7;;
25443;SDS011;13368;52.346;4.678;2023-02-26T15:45:00;2.5;;;1.7;;
25443;SDS011;13368;52.346;4.678;2023-02-26T15:50:00;5.2;;;1.8;;
25443;SDS011;13368;52.346;4.678;2023-02-26T15:55:02;2.4;;;1.4;;
25443;SDS011;13368;52.346;4.678;2023-02-26T16:00:03;3.7;;;1.7;;
25443;SDS011;13368;52.346;4.678;2023-02-26T16:05:00;8.3;;;1.6;;
25443;SDS011;13368;52.346;4.678;2023-02-26T16:10:03;4.1;;;1.8;;
25443;SDS011;13368;52.346;4.678;2023-02-26T16:15:01;4.5;;;1.8;;
25443;SDS011;13368;52.346;4.678;2023-02-26T16:20:01;4.5;;;1.7;;
25443;SDS011;13368;52.346;4.678;2023-02-26T16:25:01;4.8;;;1.9;;
25443;SDS011;13368;52.346;4.678;2023-02-26T16:30:01;3.8;;;1.8;;
25443;SDS011;13368;52.346;4.678;2023-02-26T16:35:07;6.0;;;2.0;;
25443;SDS011;13368;52.346;4.678;2023-02-26T16:40:06;5.9;;;2.3;;
25443;SDS011;13368;52.346;4.678;2023-02-26T16:45:01;3.5;;;2.2;;
25443;SDS011;13368;52.346;4.678;2023-02-26T16:50:00;6.3;;;2.3;;
25443;SDS011;13368;52.346;4.678;2023-02-26T16:55:01;5.1;;;2.4;;
25443;SDS011;13368;52.346;4.678;2023-02-26T17:00:00;6.4;;;3.0;;
25443;SDS011;13368;52.346;4.678;2023-02-26T17:05:01;7.7;;;2.5;;
25443;SDS011;13368;52.346;4.678;2023-02-26T17:10:04;6.5;;;2.7;;
25443;SDS011;13368;52.346;4.678;2023-02-26T17:15:00;4.2;;;2.2;;
25443;SDS011;13368;52.346;4.678;2023-02-26T17:20:00;5.1;;;1.9;;
25443;SDS011;13368;52.346;4.678;2023-02-26T17:25:00;7.5;;;2.7;;
25443;SDS011;13368;52.346;4.678;2023-02-26T17:30:02;6.0;;;2.5;;
25443;SDS011;13368;52.346;4.678;2023-02-26T17:35:00;4.3;;;2.2;;
25443;SDS011;13368;52.346;4.678;2023-02-26T17:40:00;9.9;;;3.2;;
25443;SDS011;13368;52.346;4.678;2023-02-26T17:45:00;4.9;;;2.7;;
25443;SDS011;13368;52.346;4.678;2023-02-26T17:50:00;6.0;;;3.1;;
25443;SDS011;13368;52.346;4.678;2023-02-26T17:55:00;9.6;;;3.6;;
25443;SDS011;13368;52.346;4.678;2023-02-26T18:00:00;5.3;;;2.8;;
25443;SDS011;13368;52.346;4.678;2023-02-26T18:05:00;7.8;;;2.6;;
25443;SDS011;13368;52.346;4.678;2023-02-26T18:10:00;6.5;;;2.5;;
25443;SDS011;13368;52.346;4.678;2023-02-26T18:15:00;6.5;;;2.7;;
25443;SDS011;13368;52.346;4.678;2023-02-26T18:20:00;5.7;;;2.5;;
25443;SDS011;13368;52.346;4.678;2023-02-26T18:25:01;5.9;;;2.5;;
25443;SDS011;13368;52.346;4.678;2023-02-26T18:30:00;6.8;;;2.8;;
25443;SDS011;13368;52.346;4.678;2023-02-26T18:35:01;7.0;;;3.1;;
25443;SDS011;13368;52.346;4.678;2023-02-26T18:40:00;7.1;;;4.4;;
25443;SDS011;13368;52.346;4.678;2023-02-26T18:45:00;9.7;;;3.1;;
25443;SDS011;13368;52.346;4.678;2023-02-26T18:50:00;9.9;;;4.1;;
25443;SDS011;13368;52.346;4.678;2023-02-26T18:55:00;12.1;;;6.0;;
25443;SDS011;13368;52.346;4.678;2023-02-26T19:00:00;10.2;;;5.4;;
25443;SDS011;13368;52.346;4.678;2023-02-26T19:05:00;7.7;;;3.6;;
25443;SDS011;13368;52.346;4.678;2023-02-26T19:10:00;6.6;;;3.8;;
25443;SDS011;13368;52.346;4.678;2023-02-26T19:15:00;6.3;;;3.9;;
25443;SDS011;13368;52.346;4.678;2023-02-26T19:20:00;12.5;;;4.6;;
25443;SDS011;13368;52.346;4.678;2023-02-26T19:25:00;8.4;;;4.3;;
25443;SDS011;13368;52.346;4.678;2023-02-26T19:30:01;10.4;;;3.7;;
25443;SDS011;13368;52.346;4.678;2023-02-26T19:35:00;7.4;;;4.1;;
25443;SDS011;13368;52.346;4.678;2023-02-26T19:40:00;12.1;;;5.1;;
25443;SDS011;13368;52.346;4.678;2023-02-26T19:45:00;16.0;;;5.6;;
25443;SDS011;13368;52.346;4.678;2023-02-26T19:50:00;14.4;;;6.1;;
25443;SDS011;13368;52.346;4.678;2023-02-26T19:55:00;17.3;;;9.3;;
25443;SDS011;13368;52.346;4.678;2023-02-26T20:00:02;17.0;;;8.5;;
25443;SDS011;13368;52.346;4.678;2023-02-26T20:05:00;16.9;;;8.6;;
25443;SDS011;13368;52.346;4.678;2023-02-26T20:10:02;29.4;;;13.1;;
25443;SDS011;13368;52.346;4.678;2023-02-26T20:15:00;22.7;;;11.1;;
25443;SDS011;13368;52.346;4.678;2023-02-26T20:20:00;17.6;;;9.0;;
25443;SDS011;13368;52.346;4.678;2023-02-26T20:25:01;21.5;;;10.1;;
25443;SDS011;13368;52.346;4.678;2023-02-26T20:30:00;23.2;;;11.4;;
25443;SDS011;13368;52.346;4.678;2023-02-26T20:35:00;24.4;;;11.2;;
25443;SDS011;13368;52.346;4.678;2023-02-26T20:40:00;17.2;;;8.4;;
25443;SDS011;13368;52.346;4.678;2023-02-26T20:45:00;21.4;;;10.1;;
25443;SDS011;13368;52.346;4.678;2023-02-26T20:50:00;21.0;;;11.6;;
25443;SDS011;13368;52.346;4.678;2023-02-26T20:55:00;17.1;;;9.8;;
25443;SDS011;13368;52.346;4.678;2023-02-26T21:00:00;14.7;;;8.1;;
25443;SDS011;13368;52.346;4.678;2023-02-26T21:05:00;17.3;;;7.2;;
25443;SDS011;13368;52.346;4.678;2023-02-26T21:10:00;14.2;;;6.3;;
25443;SDS011;13368;52.346;4.678;2023-02-26T21:15:00;8.7;;;5.5;;
25443;SDS011;13368;52.346;4.678;2023-02-26T21:20:00;9.8;;;4.6;;
25443;SDS011;13368;52.346;4.678;2023-02-26T21:25:04;11.8;;;6.1;;
25443;SDS011;13368;52.346;4.678;2023-02-26T21:30:00;9.2;;;5.1;;
25443;SDS011;13368;52.346;4.678;2023-02-26T21:35:00;12.7;;;5.6;;
25443;SDS011;13368;52.346;4.678;2023-02-26T21:40:00;10.8;;;5.9;;
25443;SDS011;13368;52.346;4.678;2023-02-26T21:45:00;20.0;;;8.4;;
25443;SDS011;13368;52.346;4.678;2023-02-26T21:50:00;9.7;;;5.6;;
25443;SDS011;13368;52.346;4.678;2023-02-26T21:55:00;12.7;;;5.8;;
25443;SDS011;13368;52.346;4.678;2023-02-26T22:00:01;12.4;;;5.5;;
25443;SDS011;13368;52.346;4.678;2023-02-26T22:05:00;10.8;;;5.4;;
25443;SDS011;13368;52.346;4.678;2023-02-26T22:10:00;8.2;;;5.2;;
25443;SDS011;13368;52.346;4.678;2023-02-26T22:15:00;11.6;;;5.7;;
25443;SDS011;13368;52.346;4.678;2023-02-26T22:20:00;13.4;;;6.2;;
25443;SDS011;13368;52.346;4.678;2023-02-26T22:25:00;12.5;;;6.0;;
25443;SDS011;13368;52.346;4.678;2023-02-26T22:30:00;12.0;;;6.1;;
25443;SDS011;13368;52.346;4.678;2023-02-26T22:35:00;14.2;;;5.9;;
25443;SDS011;13368;52.346;4.678;2023-02-26T22:40:00;10.7;;;5.6;;
25443;SDS011;13368;52.346;4.678;2023-02-26T22:45:00;13.0;;;6.1;;
25443;SDS011;13368;52.346;4.678;2023-02-26T22:50:00;16.5;;;6.5;;
25443;SDS011;13368;52.346;4.678;2023-02-26T22:55:00;11.6;;;6.2;;
25443;SDS011;13368;52.346;4.678;2023-02-26T23:00:00;12.3;;;5.5;;
25443;SDS011;13368;52.346;4.678;2023-02-26T23:05:00;9.7;;;5.4;;
25443;SDS011;13368;52.346;4.678;2023-02-26T23:10:00;12.2;;;4.6;;
25443;SDS011;13368;52.346;4.678;2023-02-26T23:15:00;9.0;;;5.4;;
25443;SDS011;13368;52.346;4.678;2023-02-26T23:20:00;9.1;;;4.8;;
25443;SDS011;13368;52.346;4.678;2023-02-26T23:25:00;12.1;;;5.2;;
25443;SDS011;13368;52.346;4.678;2023-02-26T23:30:00;9.2;;;4.4;;
25443;SDS011;13368;52.346;4.678;2023-02-26T23:35:00;9.4;;;4.5;;
25443;SDS011;13368;52.346;4.678;2023-02-26T23:40:00;7.9;;;4.3;;
25443;SDS011;13368;52.346;4.678;2023-02-26T23:45:00;11.5;;;4.6;;
25443;SDS011;13368;52.346;4.678;2023-02-26T23:50:00;8.0;;;4.5;;
25443;SDS011;13368;52.346;4.678;2023-02-26T23:55:00;9.4;;;4.4;;
